Time;durP1;ratioP1;P1;durP2;ratioP2;P2;SDS_P1;SDS_P2;PMS_P1;PMS_P2;Temp;Humidity;BMP_temperature;BMP_pressure;BME280_temperature;BME280_humidity;BME280_pressure;Samples;Min_cycle;Max_cycle;Signal;HPM_P1;HPM_P2
2024/01/20 00:02:39;;;;;;;8.80;3.40;;;;;;;;;;10324541;28;20212;-69
2024/01/20 00:07:40;;;;;;;8.60;3.03;;;;;;;;;;10305278;28;20222;-68
2024/01/20 00:12:42;;;;;;;4.53;3.20;;;;;;;;;;10330939;28;20240;-68
2024/01/20 00:17:43;;;;;;;11.02;3.83;;;;;;;;;;10314875;28;20207;-68
2024/01/20 00:22:45;;;;;;;6.50;3.22;;;;;;;;;;10301504;28;20189;-69
2024/01/20 00:27:49;;;;;;;7.43;3.58;;;;;;;;;;10306656;28;20247;-68
2024/01/20 00:32:50;;;;;;;5.70;3.47;;;;;;;;;;10292006;28;20259;-68
2024/01/20 00:37:51;;;;;;;5.55;3.70;;;;;;;;;;10306377;28;20211;-68
2024/01/20 00:42:52;;;;;;;3.30;2.90;;;;;;;;;;10311859;28;20220;-68
2024/01/20 00:47:53;;;;;;;3.28;2.67;;;;;;;;;;10317180;28;20710;-68
2024/01/20 00:52:54;;;;;;;6.05;3.75;;;;;;;;;;10332182;28;20295;-68
2024/01/20 00:57:55;;;;;;;5.82;3.28;;;;;;;;;;10326463;28;20728;-68
2024/01/20 01:02:56;;;;;;;3.20;2.90;;;;;;;;;;10309411;28;20217;-68
2024/01/20 01:07:57;;;;;;;7.57;3.80;;;;;;;;;;10330834;28;20706;-68
2024/01/20 01:12:58;;;;;;;4.20;3.22;;;;;;;;;;10318303;28;20223;-68
2024/01/20 01:17:59;;;;;;;3.00;2.80;;;;;;;;;;10307766;28;20241;-68
2024/01/20 01:23:00;;;;;;;5.35;3.88;;;;;;;;;;10319227;28;20189;-68
2024/01/20 01:28:01;;;;;;;5.38;2.58;;;;;;;;;;10327318;28;20220;-68
2024/01/20 01:33:02;;;;;;;8.73;3.13;;;;;;;;;;10316379;28;20241;-68
2024/01/20 01:38:03;;;;;;;4.90;2.72;;;;;;;;;;10311721;28;20666;-68
2024/01/20 01:43:04;;;;;;;3.40;2.42;;;;;;;;;;10302877;28;20235;-69
2024/01/20 01:48:06;;;;;;;4.25;2.85;;;;;;;;;;10280652;28;20189;-68
2024/01/20 01:53:08;;;;;;;2.92;2.63;;;;;;;;;;10323848;28;20239;-68
2024/01/20 01:58:10;;;;;;;3.25;2.67;;;;;;;;;;10303116;28;20194;-68
2024/01/20 02:03:11;;;;;;;2.78;2.50;;;;;;;;;;10295427;28;20214;-68
2024/01/20 02:08:12;;;;;;;7.50;2.65;;;;;;;;;;10287914;28;20200;-69
2024/01/20 02:13:13;;;;;;;5.00;2.50;;;;;;;;;;10306760;28;20205;-69
2024/01/20 02:18:14;;;;;;;6.97;3.10;;;;;;;;;;10309912;28;20599;-69
2024/01/20 02:23:15;;;;;;;3.13;2.67;;;;;;;;;;10314858;28;20254;-69
2024/01/20 02:28:16;;;;;;;2.90;2.60;;;;;;;;;;10309671;28;20266;-69
2024/01/20 02:33:17;;;;;;;4.38;2.70;;;;;;;;;;10315072;28;20215;-69
2024/01/20 02:38:18;;;;;;;2.40;2.28;;;;;;;;;;10325118;28;20188;-69
2024/01/20 02:43:19;;;;;;;2.95;2.72;;;;;;;;;;10324240;28;20173;-69
2024/01/20 02:48:20;;;;;;;3.25;2.60;;;;;;;;;;10310306;28;20331;-69
2024/01/20 02:53:21;;;;;;;2.78;2.58;;;;;;;;;;10318196;28;20722;-69
2024/01/20 02:58:22;;;;;;;11.60;2.75;;;;;;;;;;10302123;28;20542;-69
2024/01/20 03:03:23;;;;;;;2.63;2.42;;;;;;;;;;10310108;28;20458;-69
2024/01/20 03:08:24;;;;;;;4.75;3.30;;;;;;;;;;10325911;28;20199;-69
2024/01/20 03:13:25;;;;;;;5.15;2.65;;;;;;;;;;10287980;28;20640;-69
2024/01/20 03:18:26;;;;;;;6.20;3.28;;;;;;;;;;10315881;28;20275;-69
2024/01/20 03:23:27;;;;;;;7.32;3.53;;;;;;;;;;10316348;28;20847;-69
2024/01/20 03:28:28;;;;;;;4.57;3.17;;;;;;;;;;10303742;28;20196;-69
2024/01/20 03:33:29;;;;;;;6.07;3.22;;;;;;;;;;10304619;28;20229;-69
2024/01/20 03:38:30;;;;;;;4.78;3.95;;;;;;;;;;10315500;28;20256;-69
2024/01/20 03:43:31;;;;;;;4.53;3.85;;;;;;;;;;10312706;28;20258;-69
2024/01/20 03:48:32;;;;;;;4.88;2.75;;;;;;;;;;10316770;28;20247;-69
2024/01/20 03:53:33;;;;;;;3.85;3.00;;;;;;;;;;10318758;28;20207;-69
2024/01/20 03:58:35;;;;;;;5.50;3.97;;;;;;;;;;10317809;28;20185;-69
2024/01/20 04:03:36;;;;;;;4.28;3.03;;;;;;;;;;10328817;28;20907;-69
2024/01/20 04:08:37;;;;;;;8.73;3.40;;;;;;;;;;10310571;28;20228;-69
2024/01/20 04:13:38;;;;;;;3.88;3.53;;;;;;;;;;10315738;28;20216;-69
2024/01/20 04:18:39;;;;;;;7.20;3.90;;;;;;;;;;10283377;28;20199;-70
2024/01/20 04:23:40;;;;;;;6.88;3.53;;;;;;;;;;10313232;28;20200;-69
2024/01/20 04:28:41;;;;;;;8.63;3.13;;;;;;;;;;10313940;28;20224;-69
2024/01/20 04:33:42;;;;;;;5.38;3.35;;;;;;;;;;10320922;28;20269;-70
2024/01/20 04:38:43;;;;;;;4.78;4.03;;;;;;;;;;10303876;28;20268;-69
2024/01/20 04:43:44;;;;;;;4.72;4.05;;;;;;;;;;10313646;28;20216;-69
2024/01/20 04:48:45;;;;;;;4.65;3.20;;;;;;;;;;10319603;28;23753;-70
2024/01/20 04:53:46;;;;;;;7.28;3.95;;;;;;;;;;10305244;28;20247;-69
2024/01/20 04:58:47;;;;;;;8.65;4.15;;;;;;;;;;10309907;28;20200;-69
2024/01/20 05:03:48;;;;;;;7.10;4.18;;;;;;;;;;10316941;28;20236;-69
2024/01/20 05:08:49;;;;;;;4.50;4.07;;;;;;;;;;10307471;28;20288;-70
2024/01/20 05:13:50;;;;;;;4.25;3.80;;;;;;;;;;10308965;28;20211;-69
2024/01/20 05:18:52;;;;;;;9.73;4.05;;;;;;;;;;10308213;28;20196;-69
2024/01/20 05:23:53;;;;;;;7.55;4.15;;;;;;;;;;10307223;28;20209;-69
2024/01/20 05:28:54;;;;;;;4.90;3.25;;;;;;;;;;10323102;28;20216;-69
2024/01/20 05:33:55;;;;;;;6.18;3.83;;;;;;;;;;10327329;28;20313;-69
2024/01/20 05:38:56;;;;;;;6.13;3.70;;;;;;;;;;10319669;28;20279;-68
2024/01/20 05:43:58;;;;;;;3.88;3.60;;;;;;;;;;10327682;28;20595;-69
2024/01/20 05:48:59;;;;;;;6.53;3.70;;;;;;;;;;10326249;28;20730;-69
2024/01/20 05:54:00;;;;;;;6.18;3.55;;;;;;;;;;10305815;28;20223;-68
2024/01/20 05:59:01;;;;;;;9.57;3.97;;;;;;;;;;10313979;28;20209;-69
2024/01/20 06:04:04;;;;;;;4.32;3.92;;;;;;;;;;10321364;28;20583;-70
2024/01/20 06:09:05;;;;;;;6.88;4.47;;;;;;;;;;10307658;28;20215;-70
2024/01/20 06:14:06;;;;;;;5.40;4.03;;;;;;;;;;10309122;28;21183;-69
2024/01/20 06:19:07;;;;;;;6.10;4.35;;;;;;;;;;10295791;28;20228;-70
2024/01/20 06:24:08;;;;;;;9.93;4.68;;;;;;;;;;10300494;28;20773;-70
2024/01/20 06:29:09;;;;;;;8.55;3.47;;;;;;;;;;10293138;28;20725;-70
2024/01/20 06:34:11;;;;;;;5.63;4.55;;;;;;;;;;10314344;28;20383;-70
2024/01/20 06:39:12;;;;;;;4.20;3.28;;;;;;;;;;10292928;28;20185;-70
2024/01/20 06:44:13;;;;;;;4.15;3.70;;;;;;;;;;10303558;28;21562;-70
2024/01/20 06:49:14;;;;;;;4.28;3.38;;;;;;;;;;10301367;28;20212;-70
2024/01/20 06:54:15;;;;;;;7.80;3.28;;;;;;;;;;10279565;28;20254;-69
2024/01/20 06:59:16;;;;;;;5.28;3.28;;;;;;;;;;10290544;28;20776;-69
2024/01/20 07:04:17;;;;;;;6.85;2.90;;;;;;;;;;10303974;28;20316;-69
2024/01/20 07:09:18;;;;;;;5.05;3.85;;;;;;;;;;10279029;28;20205;-69
2024/01/20 07:14:19;;;;;;;3.50;3.20;;;;;;;;;;10283631;28;20213;-69
2024/01/20 07:19:20;;;;;;;3.97;3.00;;;;;;;;;;10303890;28;20234;-70
2024/01/20 07:24:21;;;;;;;3.20;2.95;;;;;;;;;;10309408;28;20823;-70
2024/01/20 07:29:23;;;;;;;5.20;3.90;;;;;;;;;;10285123;28;20254;-69
2024/01/20 07:34:25;;;;;;;12.88;4.00;;;;;;;;;;10311756;28;20236;-69
2024/01/20 07:39:26;;;;;;;3.22;2.92;;;;;;;;;;10296714;28;20215;-69
2024/01/20 07:44:27;;;;;;;7.82;3.38;;;;;;;;;;10295019;28;20211;-69
2024/01/20 07:49:28;;;;;;;7.47;2.92;;;;;;;;;;10293008;28;20225;-69
2024/01/20 07:54:29;;;;;;;4.70;3.10;;;;;;;;;;10297737;28;20209;-70
2024/01/20 07:59:30;;;;;;;8.82;2.88;;;;;;;;;;10308753;28;20586;-70
2024/01/20 08:04:31;;;;;;;7.68;3.50;;;;;;;;;;10310960;28;20220;-70
2024/01/20 08:09:32;;;;;;;5.38;2.88;;;;;;;;;;10324697;28;20258;-70
2024/01/20 08:14:33;;;;;;;4.13;3.15;;;;;;;;;;10294917;28;20205;-70
2024/01/20 08:19:34;;;;;;;3.67;2.97;;;;;;;;;;10309582;28;20674;-70
2024/01/20 08:24:35;;;;;;;6.00;3.40;;;;;;;;;;10302488;28;20205;-70
2024/01/20 08:29:36;;;;;;;4.88;3.28;;;;;;;;;;10313143;28;20213;-70
2024/01/20 08:34:37;;;;;;;4.63;2.67;;;;;;;;;;10312646;28;20717;-70
2024/01/20 08:39:38;;;;;;;5.80;3.70;;;;;;;;;;10304234;28;20774;-71
2024/01/20 08:44:41;;;;;;;3.83;2.92;;;;;;;;;;10313776;28;20227;-70
2024/01/20 08:49:42;;;;;;;5.13;3.45;;;;;;;;;;10294302;28;20721;-69
2024/01/20 08:54:43;;;;;;;3.08;2.88;;;;;;;;;;10308222;28;20263;-69
2024/01/20 08:59:44;;;;;;;3.25;2.92;;;;;;;;;;10317530;28;20184;-69
2024/01/20 09:04:45;;;;;;;7.03;2.85;;;;;;;;;;10322194;28;20220;-70
2024/01/20 09:09:47;;;;;;;3.88;2.53;;;;;;;;;;10314461;28;20216;-72
2024/01/20 09:14:48;;;;;;;6.25;2.78;;;;;;;;;;10298357;28;20612;-70
2024/01/20 09:19:49;;;;;;;8.18;3.15;;;;;;;;;;10309295;28;20192;-72
2024/01/20 09:24:50;;;;;;;2.70;2.42;;;;;;;;;;10305238;28;20273;-70
2024/01/20 09:29:51;;;;;;;7.18;3.03;;;;;;;;;;10310020;28;20236;-70
2024/01/20 09:34:52;;;;;;;2.88;2.67;;;;;;;;;;10330375;28;20233;-69
2024/01/20 09:39:53;;;;;;;6.80;3.33;;;;;;;;;;10303340;28;20221;-70
2024/01/20 09:44:54;;;;;;;4.65;2.83;;;;;;;;;;10308744;28;20231;-70
2024/01/20 09:49:55;;;;;;;6.50;3.50;;;;;;;;;;10313530;28;20212;-70
2024/01/20 09:55:05;;;;;;;3.20;2.50;;;;;;;;;;10284071;28;20223;-70
2024/01/20 10:00:08;;;;;;;2.67;2.42;;;;;;;;;;10330879;28;20203;-72
2024/01/20 10:05:16;;;;;;;7.63;3.13;;;;;;;;;;10306017;28;20212;-71
2024/01/20 10:10:20;;;;;;;4.15;3.30;;;;;;;;;;10302630;28;20228;-70
2024/01/20 10:15:22;;;;;;;3.60;2.95;;;;;;;;;;10290937;28;20702;-70
2024/01/20 10:20:24;;;;;;;4.30;3.38;;;;;;;;;;10309269;28;20247;-70
2024/01/20 10:25:25;;;;;;;5.35;2.53;;;;;;;;;;10308207;28;20218;-70
2024/01/20 10:30:28;;;;;;;3.55;2.67;;;;;;;;;;10300990;28;20200;-71
2024/01/20 10:35:29;;;;;;;5.43;2.80;;;;;;;;;;10323869;28;20275;-71
2024/01/20 10:40:30;;;;;;;5.45;3.17;;;;;;;;;;10312206;28;20628;-71
2024/01/20 10:45:33;;;;;;;7.55;3.28;;;;;;;;;;10291850;28;20845;-71
2024/01/20 10:50:36;;;;;;;4.05;2.40;;;;;;;;;;10313199;28;20212;-71
2024/01/20 10:55:38;;;;;;;6.82;2.83;;;;;;;;;;10295428;28;20711;-71
2024/01/20 11:00:41;;;;;;;6.38;3.85;;;;;;;;;;10314257;28;20299;-70
2024/01/20 11:05:45;;;;;;;3.95;3.28;;;;;;;;;;10288472;28;20223;-70
2024/01/20 11:10:47;;;;;;;3.53;2.30;;;;;;;;;;10318990;28;20216;-70
2024/01/20 11:15:51;;;;;;;3.92;2.85;;;;;;;;;;10319820;28;20235;-69
2024/01/20 11:20:59;;;;;;;6.10;4.00;;;;;;;;;;10322142;28;20218;-70
2024/01/20 11:26:10;;;;;;;3.60;2.50;;;;;;;;;;10299433;28;20214;-69
2024/01/20 11:31:20;;;;;;;4.20;2.90;;;;;;;;;;10303123;28;20228;-70
2024/01/20 11:36:21;;;;;;;4.10;3.25;;;;;;;;;;10279769;28;20223;-70
2024/01/20 11:41:22;;;;;;;4.78;2.97;;;;;;;;;;10317703;28;20200;-71
2024/01/20 11:46:23;;;;;;;8.80;3.40;;;;;;;;;;10299035;28;20212;-70
2024/01/20 11:51:24;;;;;;;3.05;2.75;;;;;;;;;;10297917;28;20212;-70
2024/01/20 11:56:25;;;;;;;5.70;2.97;;;;;;;;;;10289623;28;20723;-70
2024/01/20 12:01:26;;;;;;;3.20;2.90;;;;;;;;;;10323525;28;20204;-72
2024/01/20 12:06:27;;;;;;;4.40;3.38;;;;;;;;;;10324342;28;20205;-70
2024/01/20 12:11:29;;;;;;;2.85;2.70;;;;;;;;;;10312479;28;20841;-70
2024/01/20 12:16:30;;;;;;;2.95;2.28;;;;;;;;;;10285203;28;20339;-70
2024/01/20 12:21:33;;;;;;;3.47;2.67;;;;;;;;;;10311933;28;20220;-70
2024/01/20 12:26:34;;;;;;;7.55;3.08;;;;;;;;;;10295305;28;20682;-70
2024/01/20 12:31:35;;;;;;;2.63;2.42;;;;;;;;;;10281048;28;20225;-70
2024/01/20 12:36:37;;;;;;;2.55;2.45;;;;;;;;;;10308977;28;20235;-72
2024/01/20 12:41:38;;;;;;;4.30;2.35;;;;;;;;;;10295300;28;20185;-70
2024/01/20 12:46:39;;;;;;;6.55;3.03;;;;;;;;;;10292181;28;20260;-70
2024/01/20 12:51:40;;;;;;;5.72;2.53;;;;;;;;;;10300055;28;20240;-70
2024/01/20 12:56:41;;;;;;;4.30;2.78;;;;;;;;;;10315394;28;20208;-69
2024/01/20 13:01:42;;;;;;;2.42;2.20;;;;;;;;;;10299791;28;20347;-72
2024/01/20 13:06:43;;;;;;;2.28;2.08;;;;;;;;;;10306672;28;20283;-69
2024/01/20 13:11:44;;;;;;;2.90;2.13;;;;;;;;;;10275683;28;20211;-69
2024/01/20 13:16:45;;;;;;;3.65;2.55;;;;;;;;;;10307918;28;20291;-70
2024/01/20 13:21:46;;;;;;;4.35;2.45;;;;;;;;;;10300261;28;20189;-69
2024/01/20 13:26:47;;;;;;;4.28;2.28;;;;;;;;;;10312854;28;20309;-69
2024/01/20 13:31:49;;;;;;;3.90;2.42;;;;;;;;;;10292117;28;20237;-71
2024/01/20 13:36:50;;;;;;;5.78;2.95;;;;;;;;;;10278468;28;20707;-69
2024/01/20 13:41:51;;;;;;;2.83;2.60;;;;;;;;;;10304723;28;20563;-69
2024/01/20 13:46:52;;;;;;;5.60;2.58;;;;;;;;;;10308900;28;20209;-72
2024/01/20 13:51:53;;;;;;;2.40;2.20;;;;;;;;;;10304432;28;20691;-71
2024/01/20 13:56:54;;;;;;;3.40;2.13;;;;;;;;;;10303465;28;20209;-71
2024/01/20 14:01:55;;;;;;;7.47;2.45;;;;;;;;;;10296576;28;20711;-71
2024/01/20 14:06:58;;;;;;;3.30;2.08;;;;;;;;;;10302432;28;20221;-70
2024/01/20 14:11:59;;;;;;;6.50;2.85;;;;;;;;;;10312872;28;20204;-70
2024/01/20 14:17:01;;;;;;;3.70;1.85;;;;;;;;;;10313886;28;20220;-70
2024/01/20 14:22:02;;;;;;;2.65;2.33;;;;;;;;;;10313976;28;20577;-70
2024/01/20 14:27:03;;;;;;;4.38;2.03;;;;;;;;;;10293320;28;20212;-70
2024/01/20 14:32:05;;;;;;;7.90;2.63;;;;;;;;;;10305210;28;20247;-70
2024/01/20 14:37:06;;;;;;;2.63;2.42;;;;;;;;;;10302265;28;20217;-70
2024/01/20 14:42:07;;;;;;;4.93;2.33;;;;;;;;;;10302429;28;20192;-71
2024/01/20 14:47:09;;;;;;;4.60;2.22;;;;;;;;;;10304881;28;20209;-70
2024/01/20 14:52:10;;;;;;;3.00;2.63;;;;;;;;;;10292263;28;20209;-70
2024/01/20 14:57:11;;;;;;;2.80;2.50;;;;;;;;;;10294815;28;20252;-70
2024/01/20 15:02:12;;;;;;;4.30;2.05;;;;;;;;;;10282099;28;20300;-70
2024/01/20 15:07:13;;;;;;;3.97;2.35;;;;;;;;;;10308301;28;20287;-70
2024/01/20 15:12:14;;;;;;;4.90;1.70;;;;;;;;;;10285416;28;20216;-69
2024/01/20 15:17:15;;;;;;;2.38;1.90;;;;;;;;;;10311585;28;20618;-70
2024/01/20 15:22:17;;;;;;;2.22;2.03;;;;;;;;;;10309335;28;20228;-68
2024/01/20 15:27:18;;;;;;;3.95;2.17;;;;;;;;;;10291423;28;20465;-68
2024/01/20 15:32:19;;;;;;;2.13;1.95;;;;;;;;;;10307338;28;20819;-69
2024/01/20 15:37:21;;;;;;;3.60;1.95;;;;;;;;;;10313334;28;20646;-70
2024/01/20 15:42:22;;;;;;;4.15;1.92;;;;;;;;;;10311355;28;20251;-68
2024/01/20 15:47:23;;;;;;;2.78;2.13;;;;;;;;;;10305464;28;20217;-68
2024/01/20 15:52:27;;;;;;;2.67;1.88;;;;;;;;;;10312144;28;20209;-68
2024/01/20 15:57:28;;;;;;;3.90;2.35;;;;;;;;;;10296174;28;20213;-68
2024/01/20 16:02:29;;;;;;;3.25;2.38;;;;;;;;;;10302827;28;20216;-69
2024/01/20 16:07:30;;;;;;;1.70;1.70;;;;;;;;;;10308437;28;20216;-68
2024/01/20 16:12:31;;;;;;;4.53;2.35;;;;;;;;;;10297099;28;20236;-70
2024/01/20 16:17:32;;;;;;;4.03;2.63;;;;;;;;;;10292642;28;20209;-70
2024/01/20 16:22:33;;;;;;;2.53;2.30;;;;;;;;;;10301473;28;20193;-70
2024/01/20 16:27:34;;;;;;;2.70;2.10;;;;;;;;;;10322294;28;20217;-70
2024/01/20 16:32:35;;;;;;;2.50;2.30;;;;;;;;;;10314147;28;20232;-67
2024/01/20 16:37:36;;;;;;;5.10;2.58;;;;;;;;;;10290285;28;20212;-68
2024/01/20 16:42:38;;;;;;;4.88;2.88;;;;;;;;;;10299345;28;20249;-68
2024/01/20 16:47:39;;;;;;;6.72;3.35;;;;;;;;;;10305418;28;20533;-68
2024/01/20 16:52:40;;;;;;;3.92;2.88;;;;;;;;;;10300093;28;20212;-68
2024/01/20 16:57:41;;;;;;;2.97;2.70;;;;;;;;;;10303343;28;20216;-70
2024/01/20 17:02:42;;;;;;;3.33;2.10;;;;;;;;;;10313660;28;20203;-67
2024/01/20 17:07:43;;;;;;;4.05;3.22;;;;;;;;;;10287395;28;20715;-68
2024/01/20 17:12:44;;;;;;;3.03;2.30;;;;;;;;;;10310030;28;20209;-68
2024/01/20 17:17:48;;;;;;;3.25;2.90;;;;;;;;;;10313688;28;20596;-68
2024/01/20 17:22:49;;;;;;;5.28;3.95;;;;;;;;;;10311462;28;20251;-70
2024/01/20 17:27:50;;;;;;;11.48;6.53;;;;;;;;;;10317242;28;20201;-70
2024/01/20 17:32:51;;;;;;;11.85;6.75;;;;;;;;;;10326412;28;20278;-69
2024/01/20 17:37:55;;;;;;;4.90;3.78;;;;;;;;;;10321249;28;20303;-69
2024/01/20 17:42:56;;;;;;;6.57;4.05;;;;;;;;;;10327357;28;20189;-70
2024/01/20 17:47:57;;;;;;;3.10;2.90;;;;;;;;;;10321357;28;20715;-67
2024/01/20 17:52:59;;;;;;;9.48;3.90;;;;;;;;;;10321013;28;20726;-69
2024/01/20 17:58:01;;;;;;;3.55;3.10;;;;;;;;;;10316149;28;20239;-68
2024/01/20 18:03:02;;;;;;;5.63;3.83;;;;;;;;;;10321431;28;20213;-69
2024/01/20 18:08:03;;;;;;;5.20;3.38;;;;;;;;;;10318809;28;20629;-69
2024/01/20 18:13:05;;;;;;;4.03;3.10;;;;;;;;;;10329309;28;20211;-68
2024/01/20 18:18:06;;;;;;;4.03;2.60;;;;;;;;;;10303006;28;20215;-69
2024/01/20 18:23:07;;;;;;;3.72;2.83;;;;;;;;;;10321951;28;20204;-69
2024/01/20 18:28:08;;;;;;;4.65;3.33;;;;;;;;;;10319681;28;20208;-68
2024/01/20 18:33:09;;;;;;;9.20;4.25;;;;;;;;;;10319062;28;20293;-68
2024/01/20 18:38:11;;;;;;;4.13;3.13;;;;;;;;;;10315169;28;20196;-67
2024/01/20 18:43:12;;;;;;;7.50;5.30;;;;;;;;;;10317128;28;20185;-66
2024/01/20 18:48:13;;;;;;;16.13;7.13;;;;;;;;;;10308077;28;20204;-69
2024/01/20 18:53:14;;;;;;;6.75;4.45;;;;;;;;;;10318765;28;20224;-66
2024/01/20 18:58:15;;;;;;;7.53;4.45;;;;;;;;;;10324824;28;20200;-69
2024/01/20 19:03:16;;;;;;;6.07;3.85;;;;;;;;;;10318133;28;20204;-69
2024/01/20 19:08:17;;;;;;;5.38;4.07;;;;;;;;;;10317074;28;20698;-69
2024/01/20 19:13:18;;;;;;;5.50;4.35;;;;;;;;;;10329118;28;20223;-69
2024/01/20 19:18:19;;;;;;;9.75;3.15;;;;;;;;;;10317542;28;20184;-68
2024/01/20 19:23:21;;;;;;;8.57;4.60;;;;;;;;;;10317745;28;20218;-68
2024/01/20 19:28:22;;;;;;;11.43;4.50;;;;;;;;;;10317209;28;20246;-68
2024/01/20 19:33:23;;;;;;;5.50;3.40;;;;;;;;;;10304592;28;20235;-68
2024/01/20 19:38:24;;;;;;;4.20;3.65;;;;;;;;;;10327637;28;20224;-69
2024/01/20 19:43:25;;;;;;;4.68;3.10;;;;;;;;;;10320555;28;20200;-68
2024/01/20 19:48:26;;;;;;;6.13;3.80;;;;;;;;;;10314164;28;20264;-68
2024/01/20 19:53:27;;;;;;;10.98;4.40;;;;;;;;;;10321561;28;20742;-68
2024/01/20 19:58:28;;;;;;;5.40;4.57;;;;;;;;;;10326377;28;20206;-69
2024/01/20 20:03:30;;;;;;;10.35;4.07;;;;;;;;;;10326692;28;20211;-68
2024/01/20 20:08:31;;;;;;;5.07;3.80;;;;;;;;;;10293366;28;20613;-68
2024/01/20 20:13:32;;;;;;;5.43;3.97;;;;;;;;;;10320179;28;20563;-68
2024/01/20 20:18:34;;;;;;;4.40;4.00;;;;;;;;;;10321342;28;20185;-69
2024/01/20 20:23:35;;;;;;;5.32;3.72;;;;;;;;;;10336383;28;20229;-68
2024/01/20 20:28:36;;;;;;;6.57;4.05;;;;;;;;;;10309434;28;20192;-68
2024/01/20 20:33:37;;;;;;;6.13;3.90;;;;;;;;;;10325919;28;20310;-68
2024/01/20 20:38:38;;;;;;;8.98;6.15;;;;;;;;;;10320328;28;20188;-68
2024/01/20 20:43:39;;;;;;;12.07;6.63;;;;;;;;;;10298873;28;20283;-68
2024/01/20 20:48:40;;;;;;;11.47;6.63;;;;;;;;;;10284259;28;20272;-68
2024/01/20 20:53:41;;;;;;;9.37;5.53;;;;;;;;;;10300151;28;20217;-68
2024/01/20 20:58:42;;;;;;;11.20;5.18;;;;;;;;;;10305891;28;20176;-66
2024/01/20 21:03:43;;;;;;;8.35;4.32;;;;;;;;;;10304394;28;20219;-68
2024/01/20 21:08:44;;;;;;;7.10;4.00;;;;;;;;;;10313632;28;20194;-68
2024/01/20 21:13:46;;;;;;;11.10;4.28;;;;;;;;;;10311442;28;20303;-67
2024/01/20 21:18:47;;;;;;;5.93;3.90;;;;;;;;;;10291030;28;20224;-67
2024/01/20 21:23:49;;;;;;;5.97;4.43;;;;;;;;;;10313852;28;20258;-67
2024/01/20 21:28:50;;;;;;;4.63;3.85;;;;;;;;;;10309939;28;20199;-67
2024/01/20 21:33:51;;;;;;;11.13;4.78;;;;;;;;;;10315989;28;20727;-67
2024/01/20 21:38:52;;;;;;;10.17;4.27;;;;;;;;;;10317399;28;20193;-68
2024/01/20 21:43:53;;;;;;;6.00;4.20;;;;;;;;;;10310894;28;20205;-68
2024/01/20 21:48:54;;;;;;;9.70;4.60;;;;;;;;;;10311185;28;20210;-70
2024/01/20 21:53:55;;;;;;;4.23;3.90;;;;;;;;;;10299972;28;20213;-67
2024/01/20 21:58:56;;;;;;;4.93;4.20;;;;;;;;;;10318486;28;20215;-66
2024/01/20 22:03:57;;;;;;;7.60;3.77;;;;;;;;;;10320297;28;20217;-67
2024/01/20 22:08:58;;;;;;;7.67;4.37;;;;;;;;;;10310758;28;20204;-68
2024/01/20 22:13:59;;;;;;;7.03;3.50;;;;;;;;;;10311651;28;20227;-67
2024/01/20 22:19:00;;;;;;;5.97;3.10;;;;;;;;;;10309741;28;20271;-68
2024/01/20 22:24:01;;;;;;;3.30;2.83;;;;;;;;;;10303407;28;20204;-67
2024/01/20 22:29:03;;;;;;;3.63;2.93;;;;;;;;;;10315755;28;20771;-67
2024/01/20 22:34:04;;;;;;;5.83;3.43;;;;;;;;;;10314045;28;20395;-67
2024/01/20 22:39:05;;;;;;;6.90;3.57;;;;;;;;;;10320830;28;20192;-68
2024/01/20 22:44:06;;;;;;;10.57;4.73;;;;;;;;;;10312408;28;20305;-67
2024/01/20 22:49:07;;;;;;;4.67;3.70;;;;;;;;;;10318305;28;20196;-67
2024/01/20 22:54:08;;;;;;;6.50;3.23;;;;;;;;;;10319236;28;20212;-67
2024/01/20 22:59:09;;;;;;;6.03;3.10;;;;;;;;;;10294259;28;20189;-67
2024/01/20 23:04:11;;;;;;;4.50;2.87;;;;;;;;;;10314128;28;20243;-67
2024/01/20 23:09:12;;;;;;;6.13;2.87;;;;;;;;;;10309980;28;20328;-68
2024/01/20 23:14:13;;;;;;;7.73;2.27;;;;;;;;;;10321670;28;20288;-68
2024/01/20 23:19:14;;;;;;;3.40;2.07;;;;;;;;;;10314187;28;20217;-68
2024/01/20 23:24:15;;;;;;;5.67;2.63;;;;;;;;;;10322051;28;20217;-67
2024/01/20 23:29:17;;;;;;;6.63;3.73;;;;;;;;;;10293921;28;20359;-68
2024/01/20 23:34:18;;;;;;;14.43;5.87;;;;;;;;;;10300848;28;20786;-68
2024/01/20 23:39:19;;;;;;;7.60;4.83;;;;;;;;;;10318647;28;20200;-67
2024/01/20 23:44:20;;;;;;;7.37;3.33;;;;;;;;;;10318407;28;20212;-67
2024/01/20 23:49:21;;;;;;;15.63;4.87;;;;;;;;;;10316923;28;20207;-67
2024/01/20 23:54:22;;;;;;;5.87;2.20;;;;;;;;;;10324057;28;20206;-67
2024/01/20 23:59:23;;;;;;;6.47;2.67;;;;;;;;;;10309975;28;20188;-68
